Aviation Digital Data Service (ADDS)

Output produced by METARs form (0738 UTC 29 May 2016)
found at http://www.aviationweather.gov/adds/metars/
 
KBFD 290653Z AUTO 13003KT 6SM BR FEW075 BKN100 17/16 A3016 RMK AO2 SLP194 T01720161 $
KBFD 290553Z AUTO 13003KT 3SM BR CLR 17/16 A3017 RMK AO2 SLP198 60000 T01670161 10206 20167 58004 $
KBFD 290541Z AUTO 00000KT 3SM BR FEW049 17/16 A3017 RMK AO2 T01720161 $
KBFD 290527Z AUTO 00000KT 1 3/4SM BR FEW049 SCT095 17/16 A3017 RMK AO2 T01720161 $
KBFD 290453Z AUTO 00000KT 6SM BR BKN080 17/16 A3017 RMK AO2 SLP201 T01720161 402940133 $
KBFD 290353Z AUTO 14004KT 4SM BR CLR 17/16 A3017 RMK AO2 SLP203 T01720161 $
KBFD 290331Z AUTO 00000KT 6SM BR CLR 18/17 A3018 RMK AO2 T01780172 $
KBFD 290315Z AUTO 12004KT 2SM BR CLR 18/17 A3018 RMK AO2 T01780167 $
KBFD 290305Z AUTO 13003KT 1/2SM FG CLR 18/17 A3018 RMK AO2 LTG DSNT NE T01780172 $
KBFD 290255Z AUTO 12003KT 1 1/2SM BR CLR 18/17 A3018 RMK AO2 LTG DSNT NE T01780172 $
KBFD 290253Z AUTO 13003KT 4SM BR CLR 18/17 A3018 RMK AO2 LTG DSNT NE SLP203 60000 T01830172 50003 $
KBFD 290245Z AUTO 00000KT 2SM BR FEW050 18/18 A3018 RMK AO2 LTG DSNT NE T01830178 $
KBFD 290153Z AUTO 00000KT 8SM CLR 19/18 A3018 RMK AO2 LTG DSNT W-NE RAE0058 SLP206 P0000 T01940178 $
KBFD 290111Z AUTO 32003KT 10SM BKN050 OVC075 20/18 A3018 RMK AO2 LTG DSNT W AND NW RAE0058 P0000 T02000178 $
KBFD 290053Z AUTO 34003KT 10SM VCTS -RA BKN050 BKN090 BKN110 20/18 A3018 RMK AO2 LTG DSNT W-N RAB29 SLP205 P0000 T02000178 $
KBFD 282353Z AUTO 33007KT 10SM VCTS 21/18 A3017 RMK AO2 LTG DSNT N AND W TSE28 SLP206 6//// T02060178 53007 $
KBFD 282334Z AUTO VCTS A3015 RMK AO2 LTG DSNT NW TSE28 PWINO $
KBFD 282253Z AUTO TS A3016 RMK AO2 LTG DSNT NW TSB32 PRESRR SLPNO PWINO $
KBFD 282238Z AUTO TS A3013 RMK AO2 LTG DSNT NW TSB32 PWINO $
KBFD 282153Z AUTO A3013 RMK AO2 LTG DSNT NW TSE05 SLPNO PWINO $
KBFD 282111Z AUTO A3014 RMK AO2 LTG DSNT N TSE05 PWINO $
KBFD 282053Z AUTO TS A3014 RMK AO2 LTG DSNT N AND NW TSB50 SLPNO 6//// PWINO $
KBFD 281953Z AUTO A3016 RMK AO2 LTG DSNT N AND NW SLPNO PWINO PNO $
KBFD 281753Z AUTO VRB03KT 10SM FEW049 29/15 A3017 RMK AO2 SLP199 T02940150 10294 20211 58007
KBFD 281653Z AUTO 00000KT 10SM BKN048 BKN060 29/16 A3018 RMK AO2 SLP204 T02890161
KBFD 281553Z AUTO 31006KT 10SM SCT047 BKN055 BKN070 27/16 A3020 RMK AO2 SLP210 T02720161
KBFD 281453Z AUTO 00000KT 10SM FEW038 SCT048 26/17 A3019 RMK AO2 SLP208 T02610167 51006
KBFD 281353Z AUTO VRB04KT 10SM CLR 26/18 A3018 RMK AO2 SLP204 T02560178
KBFD 281253Z AUTO 00000KT 10SM CLR 23/17 A3019 RMK AO2 SLP206 T02280172
KBFD 281153Z AUTO 00000KT 10SM CLR 21/17 A3017 RMK AO2 SLP199 T02110172 10211 20133 51008
KBFD 281053Z AUTO 00000KT 10SM CLR 16/14 A3017 RMK AO2 SLP201 T01560139
KBFD 280953Z AUTO 00000KT 7SM CLR 13/12 A3016 RMK AO2 SLP198 T01330122
KBFD 280853Z AUTO 00000KT 10SM CLR 14/13 A3015 RMK AO2 SLP193 T01440128 53007
KBFD 280753Z AUTO 00000KT 10SM CLR 14/13 A3014 RMK AO2 SLP189 T01440128
KBFD 280653Z AUTO 00000KT 8SM CLR 14/13 A3013 RMK AO2 SLP186 T01440133
KBFD 280553Z AUTO 00000KT 9SM CLR 14/13 A3013 RMK AO2 SLP187 T01440133 10256 20144 51005
KBFD 280453Z AUTO 00000KT 8SM CLR 15/14 A3012 RMK AO2 SLP187 T01500139 402830144
KBFD 280353Z AUTO 00000KT 8SM CLR 16/15 A3012 RMK AO2 SLP183 T01610150
KBFD 280253Z AUTO 00000KT 10SM CLR 18/15 A3011 RMK AO2 SLP181 T01780150 53010
KBFD 280153Z AUTO 00000KT 10SM CLR 19/16 A3010 RMK AO2 SLP176 T01940156
KBFD 280053Z AUTO 00000KT 10SM CLR 22/16 A3008 RMK AO2 SLP171 T02170156
KBFD 272353Z AUTO 23003KT 10SM CLR 25/15 A3008 RMK AO2 SLP168 T02500150 10283 20250 53004
KBFD 272253Z AUTO 23003KT 10SM CLR 26/14 A3006 RMK AO2 SLP163 T02610144
KBFD 272153Z AUTO VRB04KT 10SM FEW060 27/13 A3006 RMK AO2 SLP162 T02720128
KBFD 272053Z AUTO 21011G16KT 10SM SCT090 SCT110 28/14 A3007 RMK AO2 SLP165 T02780139 58006
KBFD 271953Z AUTO 22012G17KT 10SM FEW100 28/14 A3007 RMK AO2 SLP166 T02780139